Time;durP1;ratioP1;P1;durP2;ratioP2;P2;SDS_P1;SDS_P2;PMS_P1;PMS_P2;Temp;Humidity;BMP_temperature;BMP_pressure;BME280_temperature;BME280_humidity;BME280_pressure;Samples;Min_cycle;Max_cycle;Signal;HPM_P1;HPM_P2
2022/04/19 00:00:00;;;;;;;6.70;1.80;;;;;;;2.34;78.90;99956.96;104871;1274;59278;-61
2022/04/19 00:03:04;;;;;;;6.80;2.00;;;;;;;2.33;79.68;99952.28;105111;1274;59364;-60
2022/04/19 00:05:52;;;;;;;7.20;2.10;;;;;;;2.31;79.50;99949.57;104754;1274;72635;-60
2022/04/19 00:08:40;;;;;;;7.50;2.10;;;;;;;2.31;79.81;99949.59;104914;1271;69565;-61
2022/04/19 00:11:28;;;;;;;10.10;2.50;;;;;;;2.30;80.19;99946.46;104878;1272;72298;-62
2022/04/19 00:14:16;;;;;;;8.00;2.10;;;;;;;2.31;80.38;99946.61;104743;1274;59320;-59
2022/04/19 00:17:05;;;;;;;7.10;2.10;;;;;;;2.32;80.21;99947.09;105084;1271;60527;-61
2022/04/19 00:19:52;;;;;;;6.70;2.00;;;;;;;2.33;80.21;99952.64;104808;1274;73411;-61
2022/04/19 00:22:40;;;;;;;8.70;2.20;;;;;;;2.32;80.42;99941.86;104866;1274;68012;-61
2022/04/19 00:25:29;;;;;;;8.00;2.10;;;;;;;2.31;80.51;99941.01;104748;1274;74614;-60
2022/04/19 00:28:17;;;;;;;7.30;2.10;;;;;;;2.28;80.92;99946.02;104911;1274;59295;-62
2022/04/19 00:31:06;;;;;;;6.50;2.20;;;;;;;2.24;81.16;99939.95;105172;1274;61253;-63
2022/04/19 00:33:53;;;;;;;8.20;1.90;;;;;;;2.19;81.56;99941.03;104904;1274;71975;-61
2022/04/19 00:36:42;;;;;;;6.70;2.50;;;;;;;2.15;82.29;99942.06;104843;1274;69458;-61
2022/04/19 00:39:30;;;;;;;8.60;2.30;;;;;;;2.12;82.44;99938.52;104929;1274;73491;-60
2022/04/19 00:42:19;;;;;;;7.40;2.40;;;;;;;2.09;82.78;99939.89;104799;1274;59436;-60
2022/04/19 00:45:08;;;;;;;6.80;2.30;;;;;;;2.05;82.75;99938.14;104869;1274;60354;-60
2022/04/19 00:47:56;;;;;;;6.70;2.00;;;;;;;2.02;83.17;99932.83;104865;1271;72290;-60
2022/04/19 00:50:44;;;;;;;8.90;2.30;;;;;;;2.02;83.98;99923.73;104891;1274;67530;-59
2022/04/19 00:53:34;;;;;;;7.90;2.50;;;;;;;2.05;83.72;99927.29;104961;1274;73575;-60
2022/04/19 00:56:23;;;;;;;9.70;2.40;;;;;;;2.09;84.12;99925.73;104955;1274;59262;-62
2022/04/19 00:59:12;;;;;;;7.10;2.20;;;;;;;2.12;83.98;99924.20;104579;1274;61003;-61
2022/04/19 01:02:01;;;;;;;9.10;2.40;;;;;;;2.16;84.14;99924.34;104645;1277;71165;-60
2022/04/19 01:04:55;;;;;;;8.00;2.30;;;;;;;2.20;84.17;99914.52;104655;1277;69752;-60
2022/04/19 01:07:45;;;;;;;8.30;2.10;;;;;;;2.26;84.87;99913.95;104458;1276;74397;-61
2022/04/19 01:10:35;;;;;;;10.00;2.60;;;;;;;2.33;84.77;99911.86;104390;1277;59592;-62
2022/04/19 01:13:23;;;;;;;9.20;2.20;;;;;;;2.41;84.71;99915.71;104561;1277;59269;-61
2022/04/19 01:16:16;;;;;;;7.70;2.20;;;;;;;2.45;84.86;99916.56;104742;1277;72439;-60
2022/04/19 01:19:08;;;;;;;8.20;2.10;;;;;;;2.46;84.55;99908.80;104693;1277;66583;-60
2022/04/19 01:21:57;;;;;;;6.50;2.00;;;;;;;2.48;84.60;99907.67;104415;1276;74611;-61
2022/04/19 01:24:49;;;;;;;9.90;2.30;;;;;;;2.49;84.48;99905.36;104596;1277;59307;-58
2022/04/19 01:27:38;;;;;;;8.50;2.70;;;;;;;2.51;84.71;99899.98;104640;1277;62034;-60
2022/04/19 01:30:26;;;;;;;7.80;2.00;;;;;;;2.53;84.48;99896.73;104471;1277;72956;-60
2022/04/19 01:33:14;;;;;;;7.10;2.30;;;;;;;2.57;84.29;99895.71;104667;1277;67111;-61
2022/04/19 01:36:05;;;;;;;10.30;2.50;;;;;;;2.62;84.36;99896.33;104599;1277;74441;-60
2022/04/19 01:38:54;;;;;;;7.70;2.30;;;;;;;2.68;84.47;99894.79;104468;1277;59284;-61
2022/04/19 01:41:42;;;;;;;9.10;2.20;;;;;;;2.73;84.29;99890.20;104926;1271;61824;-61
2022/04/19 01:44:30;;;;;;;7.30;2.10;;;;;;;2.77;84.28;99885.11;104789;1274;72778;-61
2022/04/19 01:47:18;;;;;;;7.50;2.20;;;;;;;2.81;84.15;99887.71;105109;1271;68564;-59
2022/04/19 01:50:13;;;;;;;8.70;2.10;;;;;;;2.84;84.05;99881.09;105034;1271;73948;-61
2022/04/19 01:53:01;;;;;;;8.00;2.30;;;;;;;2.88;83.87;99876.15;104919;1271;59374;-60
2022/04/19 01:55:51;;;;;;;8.40;2.40;;;;;;;2.91;83.64;99871.11;105026;1272;60328;-60
2022/04/19 01:58:58;;;;;;;8.40;2.20;;;;;;;2.94;83.41;99875.16;105046;1271;71067;-59
2022/04/19 02:02:18;;;;;;;9.40;2.30;;;;;;;2.97;83.06;99874.69;104885;1271;68278;-59
2022/04/19 02:05:07;;;;;;;8.10;2.10;;;;;;;3.01;82.72;99878.16;104808;1272;73389;-61
2022/04/19 02:07:56;;;;;;;10.10;2.30;;;;;;;3.04;82.49;99875.17;104960;1272;59834;-61
2022/04/19 02:10:44;;;;;;;8.50;2.20;;;;;;;3.10;82.21;99873.70;104895;1271;59383;-59
2022/04/19 02:13:32;;;;;;;8.00;2.00;;;;;;;3.16;81.88;99879.67;104069;1271;1003573;-61
2022/04/19 02:16:21;;;;;;;8.00;2.00;;;;;;;3.23;81.68;99879.55;104942;1271;69593;-63
2022/04/19 02:19:09;;;;;;;7.00;1.80;;;;;;;3.28;81.01;99882.09;105026;1271;73487;-60
2022/04/19 02:21:57;;;;;;;7.00;1.90;;;;;;;3.32;80.72;99878.89;104901;1272;59422;-61
2022/04/19 02:24:45;;;;;;;7.50;2.10;;;;;;;3.35;80.37;99874.89;104922;1271;60538;-61
2022/04/19 02:27:33;;;;;;;10.00;2.50;;;;;;;3.38;80.41;99868.93;104866;1271;73782;-61
2022/04/19 02:30:22;;;;;;;7.40;2.10;;;;;;;3.42;80.31;99874.18;104978;1271;69551;-62
2022/04/19 02:33:14;;;;;;;8.30;2.20;;;;;;;3.43;80.00;99873.46;104813;1271;73274;-61
2022/04/19 02:36:03;;;;;;;8.90;2.60;;;;;;;3.43;80.00;99877.48;105024;1271;59282;-63
2022/04/19 02:38:52;;;;;;;8.50;2.20;;;;;;;3.43;79.91;99879.25;104914;1271;60315;-60
2022/04/19 02:41:40;;;;;;;8.80;2.20;;;;;;;3.43;80.20;99881.51;104835;1271;70550;-61
2022/04/19 02:44:27;;;;;;;9.40;2.70;;;;;;;3.42;80.13;99879.09;104969;1271;69489;-63
2022/04/19 02:47:22;;;;;;;10.20;2.70;;;;;;;3.42;80.26;99879.25;104967;1271;73169;-62
2022/04/19 02:50:10;;;;;;;8.80;2.70;;;;;;;3.45;80.42;99876.48;104890;1271;59429;-63
2022/04/19 02:53:00;;;;;;;7.50;2.60;;;;;;;3.47;80.36;99875.68;105274;1271;61567;-62
2022/04/19 02:55:48;;;;;;;6.70;2.10;;;;;;;3.50;80.34;99875.90;104927;1271;72230;-61
2022/04/19 02:58:36;;;;;;;8.20;2.50;;;;;;;3.52;80.37;99878.77;104195;1271;1003370;-61
2022/04/19 03:01:24;;;;;;;6.30;2.10;;;;;;;3.52;80.39;99886.09;104865;1271;72281;-57
2022/04/19 03:04:13;;;;;;;8.10;2.10;;;;;;;3.54;80.49;99884.80;105120;1271;59301;-62
2022/04/19 03:07:01;;;;;;;6.60;1.90;;;;;;;3.55;80.31;99883.02;103461;1271;1003740;-59
2022/04/19 03:09:49;;;;;;;7.30;2.20;;;;;;;3.54;80.34;99882.12;104920;1271;72215;-61
2022/04/19 03:12:39;;;;;;;7.40;2.50;;;;;;;3.54;80.52;99877.79;104865;1271;67556;-62
2022/04/19 03:15:34;;;;;;;8.10;2.30;;;;;;;3.52;80.57;99877.69;105136;1271;74441;-61
2022/04/19 03:18:23;;;;;;;9.10;2.40;;;;;;;3.53;80.62;99870.98;104881;1271;59400;-61
2022/04/19 03:21:13;;;;;;;7.60;2.60;;;;;;;3.53;80.77;99866.08;104837;1271;59319;-62
2022/04/19 03:30:39;;;;;;;6.60;1.80;;;;;;;3.58;80.73;99855.98;104978;1271;72699;-62
2022/04/19 03:33:27;;;;;;;8.40;2.30;;;;;;;3.63;80.90;99861.20;104939;1271;59478;-62
2022/04/19 03:36:15;;;;;;;7.80;2.30;;;;;;;3.66;80.66;99869.08;104877;1271;60514;-61
2022/04/19 03:39:03;;;;;;;7.80;2.40;;;;;;;3.68;80.81;99877.40;105009;1271;71691;-63
2022/04/19 03:41:52;;;;;;;8.60;2.20;;;;;;;3.69;80.84;99885.97;104884;1271;69628;-63
2022/04/19 03:44:41;;;;;;;8.20;2.40;;;;;;;3.68;80.85;99884.25;105295;1271;73312;-62
2022/04/19 03:47:29;;;;;;;8.40;1.90;;;;;;;3.69;80.77;99885.05;105219;1271;59763;-62
2022/04/19 03:50:17;;;;;;;8.60;2.60;;;;;;;3.69;80.78;99888.05;104934;1270;62120;-61
2022/04/19 03:53:08;;;;;;;8.60;2.20;;;;;;;3.69;80.72;99884.35;105009;1271;72882;-62
2022/04/19 03:56:03;;;;;;;11.70;2.30;;;;;;;3.70;80.73;99892.55;104822;1271;68548;-60
2022/04/19 03:58:51;;;;;;;8.70;2.30;;;;;;;3.70;80.83;99892.41;104963;1271;74691;-62
2022/04/19 04:01:39;;;;;;;9.40;2.20;;;;;;;3.69;81.05;99904.16;104880;1271;59400;-61
2022/04/19 04:04:32;;;;;;;9.60;2.40;;;;;;;3.70;81.07;99897.64;104969;1273;59389;-61
2022/04/19 04:07:20;;;;;;;7.30;2.20;;;;;;;3.73;81.23;99885.55;104953;1271;73233;-61
2022/04/19 04:10:09;;;;;;;8.20;2.50;;;;;;;3.78;81.00;99897.59;103418;1271;1003080;-62
2022/04/19 04:12:58;;;;;;;9.30;2.00;;;;;;;3.80;81.17;99900.98;104775;1271;73493;-62
2022/04/19 04:15:46;;;;;;;8.40;2.30;;;;;;;3.84;81.59;99896.78;104848;1271;59561;-61
2022/04/19 04:18:35;;;;;;;10.30;2.20;;;;;;;3.86;81.45;99895.94;105192;1271;61335;-60
2022/04/19 04:21:23;;;;;;;10.20;3.00;;;;;;;3.89;81.34;99897.36;104941;1271;73442;-67
2022/04/19 04:24:11;;;;;;;7.20;2.20;;;;;;;3.91;81.40;99899.20;105500;1273;69486;-62
2022/04/19 04:27:01;;;;;;;7.80;2.00;;;;;;;3.93;81.59;99911.20;105060;1274;74737;-63
2022/04/19 04:29:50;;;;;;;7.80;2.40;;;;;;;3.94;81.41;99905.18;104653;1274;59303;-62
2022/04/19 04:32:38;;;;;;;9.40;2.40;;;;;;;3.97;81.40;99907.13;104763;1273;62168;-64
2022/04/19 04:35:26;;;;;;;12.60;2.90;;;;;;;4.02;81.19;99908.43;104859;1274;72722;-64
2022/04/19 04:38:17;;;;;;;7.50;2.60;;;;;;;4.08;81.22;99916.74;104754;1273;66759;-63
2022/04/19 04:41:07;;;;;;;7.70;2.30;;;;;;;4.12;80.89;99918.30;104847;1274;72864;-64
2022/04/19 04:43:55;;;;;;;8.30;2.10;;;;;;;4.17;80.99;99920.52;104730;1274;59320;-64
2022/04/19 04:49:49;;;;;;;10.30;2.80;;;;;;;4.31;80.18;99915.53;104707;1274;73709;-62
2022/04/19 04:52:39;;;;;;;7.00;2.20;;;;;;;4.40;79.37;99917.13;104666;1273;68995;-65
2022/04/19 04:55:28;;;;;;;7.80;2.10;;;;;;;4.50;78.72;99915.20;104866;1273;73028;-61
2022/04/19 04:58:16;;;;;;;8.70;2.10;;;;;;;4.59;78.17;99921.39;104918;1274;59341;-62
2022/04/19 05:01:04;;;;;;;8.20;2.30;;;;;;;4.67;78.00;99928.84;104840;1274;59939;-66
2022/04/19 05:03:53;;;;;;;15.30;5.70;;;;;;;4.77;77.98;99928.48;104756;1274;71632;-63
2022/04/19 05:06:41;;;;;;;16.80;7.80;;;;;;;4.83;77.14;99924.95;104641;1274;68052;-61
2022/04/19 05:09:30;;;;;;;13.30;3.50;;;;;;;4.90;77.01;99926.34;104666;1274;72794;-61
2022/04/19 05:12:18;;;;;;;18.70;7.60;;;;;;;4.97;77.02;99923.48;104676;1274;59242;-64
2022/04/19 05:15:07;;;;;;;13.90;3.90;;;;;;;5.04;76.43;99921.69;104694;1274;59323;-63
2022/04/19 05:17:56;;;;;;;11.90;3.90;;;;;;;5.08;75.86;99920.75;104788;1275;72439;-61
2022/04/19 05:20:45;;;;;;;8.60;2.70;;;;;;;5.11;75.51;99918.45;104692;1274;68560;-62
2022/04/19 05:23:33;;;;;;;8.90;3.30;;;;;;;5.16;75.05;99917.30;104722;1273;73456;-63
2022/04/19 05:26:24;;;;;;;9.10;3.30;;;;;;;5.21;74.24;99914.53;104992;1273;59396;-63
2022/04/19 05:29:12;;;;;;;8.90;3.50;;;;;;;5.26;73.91;99912.83;104677;1273;61766;-61
2022/04/19 05:32:00;;;;;;;12.50;4.10;;;;;;;5.33;72.77;99911.59;104964;1272;73881;-61
2022/04/19 05:34:49;;;;;;;8.10;2.70;;;;;;;5.39;71.59;99907.02;104714;1274;67570;-63
2022/04/19 05:37:40;;;;;;;10.50;3.10;;;;;;;5.48;70.54;99904.39;104697;1274;72758;-63
2022/04/19 05:40:29;;;;;;;6.90;2.50;;;;;;;5.55;69.05;99889.20;104704;1274;60436;-60
2022/04/19 05:43:16;;;;;;;7.80;2.40;;;;;;;5.73;67.52;99901.32;104836;1274;61423;-62
2022/04/19 05:46:04;;;;;;;9.20;2.30;;;;;;;5.89;66.67;99906.52;104815;1274;73100;-63
2022/04/19 05:48:53;;;;;;;7.10;2.10;;;;;;;6.04;65.79;99911.61;104907;1274;68420;-64
2022/04/19 05:51:42;;;;;;;7.30;1.80;;;;;;;6.18;64.99;99902.52;104823;1274;72078;-62
2022/04/19 05:54:30;;;;;;;7.70;1.60;;;;;;;6.29;63.95;99898.80;104856;1274;59449;-60
2022/04/19 05:57:17;;;;;;;5.80;1.80;;;;;;;6.39;62.93;99906.49;104794;1274;61092;-63
2022/04/19 06:00:06;;;;;;;6.90;1.80;;;;;;;6.44;60.72;99899.64;104849;1274;74052;-65
2022/04/19 06:06:10;;;;;;;7.90;1.60;;;;;;;6.59;59.20;99908.04;104954;1274;74580;-64
2022/04/19 06:08:59;;;;;;;5.10;1.50;;;;;;;6.67;57.73;99900.45;104725;1274;59660;-63
2022/04/19 06:11:47;;;;;;;6.30;1.80;;;;;;;6.76;57.12;99900.80;104858;1274;62212;-64
2022/04/19 06:14:35;;;;;;;6.40;1.60;;;;;;;6.83;56.39;99904.89;104760;1274;72059;-65
2022/04/19 06:17:23;;;;;;;7.00;1.90;;;;;;;6.90;56.59;99904.09;105378;1274;67782;-64
2022/04/19 06:20:10;;;;;;;8.80;2.10;;;;;;;6.96;56.35;99906.71;104867;1274;73854;-66
2022/04/19 06:22:59;;;;;;;7.30;2.20;;;;;;;7.02;55.85;99908.48;104780;1274;59300;-62
2022/04/19 06:25:46;;;;;;;6.60;1.90;;;;;;;7.07;56.04;99908.30;104968;1274;60788;-65
2022/04/19 06:28:35;;;;;;;7.80;2.00;;;;;;;7.14;55.61;99908.55;104807;1274;73939;-66
2022/04/19 06:31:40;;;;;;;6.30;2.10;;;;;;;7.21;54.64;99907.60;104884;1274;68434;-65
2022/04/19 06:34:36;;;;;;;8.60;2.20;;;;;;;7.30;54.04;99907.48;104948;1272;74237;-64
2022/04/19 06:37:36;;;;;;;7.70;2.10;;;;;;;7.42;53.07;99905.13;104986;1274;59293;-63
2022/04/19 06:40:32;;;;;;;7.70;2.30;;;;;;;7.53;50.83;99910.89;104796;1274;61779;-62
2022/04/19 06:43:20;;;;;;;8.90;2.30;;;;;;;7.62;50.41;99922.33;104840;1274;73948;-62
2022/04/19 06:46:37;;;;;;;7.60;2.20;;;;;;;7.73;50.02;99929.50;106710;1274;66842;-63
2022/04/19 06:49:26;;;;;;;8.60;2.40;;;;;;;8.01;49.57;99930.07;106644;1274;74034;-64
2022/04/19 06:52:16;;;;;;;6.90;1.80;;;;;;;8.36;49.00;99930.32;107131;1274;58098;-65
2022/04/19 06:55:05;;;;;;;7.20;2.00;;;;;;;8.61;49.16;99932.45;107019;1274;59425;-64
2022/04/19 06:57:54;;;;;;;6.10;2.00;;;;;;;8.83;49.85;99933.01;105768;1274;72720;-65
2022/04/19 07:00:42;;;;;;;6.30;2.00;;;;;;;9.10;50.46;99935.31;105061;1274;65814;-62
2022/04/19 07:03:30;;;;;;;6.40;2.00;;;;;;;9.35;50.68;99944.27;104819;1274;73376;-62
2022/04/19 07:06:37;;;;;;;9.00;2.20;;;;;;;9.47;51.68;99959.31;104982;1274;59408;-64
2022/04/19 07:09:26;;;;;;;6.80;1.80;;;;;;;9.52;53.02;99961.09;104843;1274;61828;-64
2022/04/19 07:12:18;;;;;;;6.70;2.00;;;;;;;9.54;54.30;99956.85;104814;1274;71665;-64
2022/04/19 07:15:19;;;;;;;8.70;2.30;;;;;;;9.75;55.46;99956.88;104723;1274;69326;-63
2022/04/19 07:18:13;;;;;;;8.40;2.00;;;;;;;10.31;54.82;99962.02;104653;1275;74531;-63
2022/04/19 07:27:15;;;;;;;6.80;1.70;;;;;;;11.49;51.16;99967.60;104994;1274;73021;-62
2022/04/19 07:30:04;;;;;;;7.30;1.70;;;;;;;11.56;50.01;99967.38;104764;1274;68178;-60
2022/04/19 07:32:54;;;;;;;8.30;2.20;;;;;;;11.50;49.67;99971.27;104756;1274;72053;-64
2022/04/19 07:35:47;;;;;;;8.70;2.60;;;;;;;11.79;49.51;99975.65;104944;1274;59208;-63
2022/04/19 07:38:36;;;;;;;8.80;2.40;;;;;;;12.05;48.11;99974.02;104776;1274;61837;-64
2022/04/19 07:41:40;;;;;;;7.40;2.20;;;;;;;12.32;47.71;99958.88;104874;1274;73519;-63
2022/04/19 07:44:34;;;;;;;8.00;2.30;;;;;;;12.65;46.72;99960.48;104794;1274;68622;-64
2022/04/19 07:47:24;;;;;;;8.50;2.50;;;;;;;12.83;45.77;99956.23;104736;1274;73943;-61
2022/04/19 07:50:13;;;;;;;7.40;2.60;;;;;;;12.77;44.81;99950.14;104835;1275;59372;-62
2022/04/19 07:53:02;;;;;;;7.30;2.30;;;;;;;12.67;45.08;99951.59;104968;1274;61211;-62
2022/04/19 07:55:50;;;;;;;7.40;2.30;;;;;;;12.69;44.97;99955.83;104730;1274;72018;-60
2022/04/19 07:58:38;;;;;;;9.00;2.30;;;;;;;12.86;44.89;99956.16;104731;1274;69753;-64
2022/04/19 08:01:26;;;;;;;6.60;2.10;;;;;;;12.90;44.12;99955.77;104644;1274;73356;-63
2022/04/19 08:04:14;;;;;;;6.90;2.30;;;;;;;12.87;44.26;99954.23;104892;1274;59690;-67
2022/04/19 08:07:04;;;;;;;7.20;2.20;;;;;;;12.67;43.55;99957.08;104829;1274;59482;-67
2022/04/19 08:09:53;;;;;;;7.20;2.10;;;;;;;12.29;44.09;99955.94;105017;1274;73457;-64
2022/04/19 08:12:42;;;;;;;6.80;2.20;;;;;;;12.00;44.70;99964.79;104735;1274;67992;-63
2022/04/19 08:15:31;;;;;;;7.50;2.10;;;;;;;11.69;45.50;99970.20;104775;1274;74686;-64
2022/04/19 08:18:26;;;;;;;7.30;2.70;;;;;;;11.39;46.40;99968.25;104568;1274;59279;-67
2022/04/19 08:21:15;;;;;;;6.70;2.30;;;;;;;11.19;46.81;99969.23;105057;1274;59812;-65
2022/04/19 08:24:04;;;;;;;11.00;2.50;;;;;;;11.03;47.15;99967.27;104968;1274;73055;-65
2022/04/19 08:26:53;;;;;;;7.80;2.40;;;;;;;11.00;47.25;99969.81;104846;1274;68370;-67
2022/04/19 08:29:42;;;;;;;7.10;2.80;;;;;;;11.04;46.92;99968.26;104779;1274;74539;-64
2022/04/19 08:32:30;;;;;;;6.50;2.40;;;;;;;10.96;47.05;99965.79;104711;1274;59320;-64
2022/04/19 08:35:18;;;;;;;7.70;2.60;;;;;;;10.96;47.09;99969.28;104769;1272;59870;-63
2022/04/19 08:38:07;;;;;;;8.20;3.10;;;;;;;11.00;47.46;99973.20;104856;1274;73207;-65
2022/04/19 08:40:56;;;;;;;8.20;2.60;;;;;;;11.22;47.34;99978.73;104761;1274;67449;-62
2022/04/19 08:43:46;;;;;;;9.60;2.40;;;;;;;11.47;46.40;99978.77;104957;1274;73631;-64
2022/04/19 08:46:41;;;;;;;7.50;2.70;;;;;;;11.62;46.06;99983.44;104774;1274;59306;-63
2022/04/19 08:49:29;;;;;;;6.60;2.20;;;;;;;11.52;46.20;99983.05;105145;1274;60058;-61
2022/04/19 08:52:19;;;;;;;8.00;3.00;;;;;;;11.36;46.60;99985.02;104700;1274;73038;-65
2022/04/19 08:58:16;;;;;;;10.20;3.10;;;;;;;11.23;47.33;99988.58;105030;1274;74466;-61
2022/04/19 09:01:05;;;;;;;7.70;2.70;;;;;;;11.14;47.46;99984.67;104983;1274;59377;-62
2022/04/19 09:03:54;;;;;;;7.30;2.60;;;;;;;11.16;47.60;99984.38;105107;1274;60508;-63
2022/04/19 09:06:57;;;;;;;9.50;2.80;;;;;;;11.15;47.34;99985.83;104711;1274;423234;-62
2022/04/19 09:10:07;;;;;;;8.20;2.50;;;;;;;11.13;46.93;99978.89;104937;1274;68320;-62
2022/04/19 09:13:06;;;;;;;7.40;2.60;;;;;;;11.08;47.03;99980.95;104690;1274;73684;-62
2022/04/19 09:15:54;;;;;;;8.60;3.20;;;;;;;10.95;47.11;99976.30;104747;1274;59307;-62
2022/04/19 09:18:42;;;;;;;7.50;2.70;;;;;;;10.83;47.37;99984.34;104746;1274;60319;-67
2022/04/19 09:21:40;;;;;;;7.70;2.90;;;;;;;10.69;47.97;99986.90;104656;1275;71560;-63
2022/04/19 09:24:28;;;;;;;9.10;3.00;;;;;;;10.65;47.97;99987.72;105058;1274;68770;-59
2022/04/19 09:27:32;;;;;;;6.80;2.50;;;;;;;10.57;47.87;99989.25;104729;1274;73000;-62
2022/04/19 09:30:23;;;;;;;8.20;2.50;;;;;;;10.59;48.11;99995.44;104881;1274;59307;-61
2022/04/19 09:33:24;;;;;;;7.60;2.70;;;;;;;10.68;48.19;100000.77;104798;1274;60319;-63
2022/04/19 09:36:13;;;;;;;6.90;2.80;;;;;;;10.72;47.57;100003.50;105136;1273;73683;-60
2022/04/19 09:39:26;;;;;;;7.70;2.50;;;;;;;10.63;46.80;100001.53;105031;1274;68583;-61
2022/04/19 09:42:14;;;;;;;9.10;3.00;;;;;;;10.46;46.85;100001.30;104894;1274;72429;-62
2022/04/19 09:45:02;;;;;;;7.20;2.10;;;;;;;10.37;47.56;100002.30;104856;1273;59253;-63
2022/04/19 09:47:52;;;;;;;7.50;2.50;;;;;;;10.39;47.89;100003.59;104822;1274;59407;-62
2022/04/19 09:50:47;;;;;;;6.40;2.30;;;;;;;10.39;47.86;100006.80;105259;1274;73753;-61
2022/04/19 09:53:45;;;;;;;8.50;2.40;;;;;;;10.35;47.89;100006.55;107099;1274;68519;-65
2022/04/19 09:56:38;;;;;;;7.00;2.50;;;;;;;10.33;48.05;100010.05;106557;1274;73396;-66
2022/04/19 09:59:46;;;;;;;7.80;2.20;;;;;;;10.34;48.09;100014.43;106798;1274;59297;-65
2022/04/19 10:08:53;;;;;;;8.40;2.50;;;;;;;10.40;48.04;100025.66;105110;1273;69964;-65
2022/04/19 10:11:40;;;;;;;8.10;2.60;;;;;;;10.42;48.42;100023.20;105089;1274;72307;-64
2022/04/19 10:14:34;;;;;;;7.70;2.70;;;;;;;10.44;49.06;100021.10;105069;1273;59314;-64
2022/04/19 10:17:22;;;;;;;9.20;2.40;;;;;;;10.40;49.14;100018.95;104976;1273;60874;-63
2022/04/19 10:20:12;;;;;;;7.50;2.70;;;;;;;10.35;49.24;100023.17;105187;1274;73526;-65
2022/04/19 10:23:08;;;;;;;6.70;2.30;;;;;;;10.41;49.46;100016.75;104823;1274;68237;-66
2022/04/19 10:26:05;;;;;;;6.60;2.20;;;;;;;10.55;49.35;100009.79;104554;1273;71413;-63
2022/04/19 10:28:58;;;;;;;8.70;2.70;;;;;;;10.81;48.38;100012.73;104821;1274;59534;-63
2022/04/19 10:31:59;;;;;;;8.50;2.20;;;;;;;11.26;47.67;100013.59;104759;1273;61973;-63
2022/04/19 10:34:59;;;;;;;8.20;2.40;;;;;;;11.72;47.03;100014.27;104962;1273;72775;-63
2022/04/19 10:38:20;;;;;;;6.60;2.40;;;;;;;12.13;45.35;100014.73;104707;1273;67549;-67
2022/04/19 10:41:08;;;;;;;7.80;2.70;;;;;;;12.51;44.45;100010.29;104734;1274;72751;-66
2022/04/19 10:44:25;;;;;;;6.40;2.40;;;;;;;13.00;44.00;100011.52;104778;1274;60107;-65
2022/04/19 10:47:16;;;;;;;7.20;2.80;;;;;;;13.74;42.91;100011.45;104836;1274;59410;-64
2022/04/19 10:50:06;;;;;;;6.80;2.10;;;;;;;14.37;40.98;100006.20;104706;1273;73590;-65
2022/04/19 10:52:59;;;;;;;9.70;2.70;;;;;;;14.92;39.85;100004.20;104742;1274;68687;-62
2022/04/19 10:55:53;;;;;;;9.30;2.60;;;;;;;15.42;39.04;100004.68;104805;1274;73462;-70
2022/04/19 10:58:43;;;;;;;7.10;2.20;;;;;;;15.73;38.56;99999.18;104732;1274;59329;-67
2022/04/19 11:01:31;;;;;;;7.80;2.90;;;;;;;16.21;38.12;100007.90;104818;1273;60479;-66
2022/04/19 11:04:35;;;;;;;7.40;2.50;;;;;;;16.72;36.63;99999.42;104819;1273;72761;-67
2022/04/19 11:07:42;;;;;;;10.50;2.50;;;;;;;17.08;35.78;99995.57;104743;1273;69738;-64
2022/04/19 11:10:38;;;;;;;7.30;2.40;;;;;;;17.08;35.18;99998.81;104739;1274;74439;-67
2022/04/19 11:13:29;;;;;;;9.00;2.40;;;;;;;17.09;35.80;100000.45;104969;1273;59250;-65
2022/04/19 11:16:17;;;;;;;18.90;5.10;;;;;;;17.31;35.87;99998.61;104749;1274;59889;-65
2022/04/19 11:19:19;;;;;;;13.40;3.80;;;;;;;17.65;35.68;100000.52;104525;1273;72147;-63
2022/04/19 11:22:24;;;;;;;8.90;2.70;;;;;;;17.75;35.47;99993.44;104759;1273;69313;-64
2022/04/19 11:25:12;;;;;;;7.20;2.60;;;;;;;17.46;34.63;99999.21;105186;1273;72326;-64
2022/04/19 11:28:00;;;;;;;10.80;3.00;;;;;;;17.07;36.34;100000.80;104762;1274;59305;-67
2022/04/19 11:30:55;;;;;;;8.00;2.80;;;;;;;16.50;37.48;100004.23;104773;1274;61522;-66
2022/04/19 11:33:42;;;;;;;8.60;2.70;;;;;;;16.10;38.06;100007.38;104904;1272;72674;-63
2022/04/19 11:36:30;;;;;;;9.60;2.80;;;;;;;15.87;38.75;100004.15;104691;1274;68005;-64
2022/04/19 11:48:50;;;;;;;7.80;2.80;;;;;;;15.74;40.74;100000.80;105049;1272;71650;-68
2022/04/19 11:51:38;;;;;;;8.90;2.90;;;;;;;15.77;40.47;99999.13;104875;1274;66585;-66
2022/04/19 11:54:32;;;;;;;13.50;4.20;;;;;;;15.85;40.02;99996.72;105794;1274;71824;-68
2022/04/19 11:57:23;;;;;;;10.30;3.10;;;;;;;15.98;39.77;99994.52;104963;1273;59361;-63
2022/04/19 12:00:16;;;;;;;7.00;2.40;;;;;;;15.91;39.42;99996.98;104672;1274;59461;-63
2022/04/19 12:03:28;;;;;;;11.70;3.30;;;;;;;15.70;39.44;100000.47;105268;1274;73891;-65
2022/04/19 12:06:23;;;;;;;10.70;3.30;;;;;;;15.42;39.66;100002.34;104767;1274;68350;-62
2022/04/19 12:09:15;;;;;;;7.70;2.80;;;;;;;15.21;40.61;99997.27;104814;1274;73257;-66
2022/04/19 12:12:06;;;;;;;8.60;3.10;;;;;;;15.09;40.72;99994.73;105085;1274;59301;-60
2022/04/19 12:14:54;;;;;;;9.70;3.30;;;;;;;15.08;40.63;99988.91;105022;1274;59394;-64
2022/04/19 12:17:45;;;;;;;11.40;3.30;;;;;;;15.07;41.13;99990.95;105047;1272;72838;-63
2022/04/19 12:20:44;;;;;;;11.70;3.60;;;;;;;15.03;41.28;99990.84;104920;1274;69386;-65
2022/04/19 12:23:34;;;;;;;15.30;4.70;;;;;;;14.91;41.39;99985.60;104664;1273;73444;-62
2022/04/19 12:26:24;;;;;;;10.00;3.30;;;;;;;14.77;42.10;99992.83;104844;1274;59291;-64
2022/04/19 12:29:14;;;;;;;8.00;3.00;;;;;;;14.57;42.88;99992.02;105073;1274;60260;-63
2022/04/19 12:32:05;;;;;;;7.40;2.90;;;;;;;14.37;43.89;99995.52;104882;1274;73777;-62
2022/04/19 12:35:08;;;;;;;17.20;4.30;;;;;;;14.14;44.99;99997.45;104799;1273;67671;-64
2022/04/19 12:38:16;;;;;;;14.20;4.90;;;;;;;13.95;45.75;99999.64;104876;1274;74368;-63
2022/04/19 12:41:15;;;;;;;13.20;4.40;;;;;;;13.66;44.96;99998.86;104799;1273;59336;-65
2022/04/19 12:44:06;;;;;;;8.90;3.30;;;;;;;13.51;46.65;100001.34;105051;1274;59356;-66
2022/04/19 12:46:55;;;;;;;8.80;3.60;;;;;;;13.29;47.63;100001.80;104963;1273;73103;-63
2022/04/19 12:49:47;;;;;;;8.40;3.90;;;;;;;13.16;48.61;99998.20;104933;1274;67236;-68
2022/04/19 12:52:34;;;;;;;10.40;3.60;;;;;;;13.07;49.03;99997.89;105100;1272;73420;-64
2022/04/19 12:55:30;;;;;;;9.50;4.50;;;;;;;13.16;49.79;99997.80;104736;1273;59422;-63
2022/04/19 12:58:18;;;;;;;10.30;3.40;;;;;;;13.14;48.52;99996.55;105010;1273;60429;-62
2022/04/19 13:01:06;;;;;;;9.60;3.50;;;;;;;13.03;48.50;99994.89;105022;1274;73386;-64
2022/04/19 13:03:54;;;;;;;9.70;3.50;;;;;;;13.02;48.97;99994.58;104951;1274;67953;-64
2022/04/19 13:12:57;;;;;;;9.50;3.50;;;;;;;12.85;49.43;99997.90;105180;1272;59392;-63
2022/04/19 13:15:45;;;;;;;8.70;3.40;;;;;;;12.85;49.23;99988.82;104951;1274;72780;-64
2022/04/19 13:18:35;;;;;;;9.40;3.70;;;;;;;12.84;48.29;99995.14;105216;1274;67505;-65
2022/04/19 13:21:26;;;;;;;7.70;3.40;;;;;;;12.79;47.94;99997.74;104960;1274;72956;-63
2022/04/19 13:24:23;;;;;;;7.80;2.90;;;;;;;12.60;47.90;99995.80;103266;1274;1003681;-65
2022/04/19 13:27:12;;;;;;;7.00;3.10;;;;;;;12.42;47.92;99996.64;104645;1274;59821;-65
2022/04/19 13:30:01;;;;;;;8.70;3.20;;;;;;;12.21;47.87;99999.45;105050;1274;71927;-63
2022/04/19 13:32:49;;;;;;;7.80;3.60;;;;;;;11.77;48.93;100000.28;104788;1274;68655;-62
2022/04/19 13:35:37;;;;;;;8.10;3.30;;;;;;;11.48;49.68;100004.71;104826;1273;71936;-62
2022/04/19 13:38:25;;;;;;;8.10;3.10;;;;;;;11.31;49.88;100002.48;104700;1273;59285;-66
2022/04/19 13:41:14;;;;;;;8.30;3.60;;;;;;;11.16;49.95;100000.19;104811;1274;59304;-66
2022/04/19 13:44:03;;;;;;;9.00;3.40;;;;;;;11.09;50.96;99995.91;104710;1274;74191;-62
2022/04/19 13:46:56;;;;;;;8.30;3.50;;;;;;;11.07;51.90;99996.41;104735;1274;68235;-65
2022/04/19 13:49:52;;;;;;;9.20;3.60;;;;;;;11.17;51.58;99997.02;104872;1273;73911;-63
2022/04/19 13:52:40;;;;;;;10.10;3.50;;;;;;;11.30;51.31;99997.48;104966;1274;59284;-64
2022/04/19 13:55:28;;;;;;;8.30;3.00;;;;;;;11.30;50.96;99998.84;104853;1274;59858;-63
2022/04/19 13:58:17;;;;;;;8.40;3.30;;;;;;;11.16;50.87;99998.38;104939;1273;70725;-63
2022/04/19 14:01:06;;;;;;;7.40;3.40;;;;;;;11.23;51.22;99999.45;104789;1272;68949;-68